createdAt,value
2022-09-07T00:02:05.568Z,26.70
2022-09-07T00:04:32.340Z,26.69
2022-09-07T00:06:59.071Z,26.58
2022-09-07T00:09:25.835Z,26.54
2022-09-07T00:11:52.497Z,26.59
2022-09-07T00:14:19.211Z,26.54
2022-09-07T00:16:45.937Z,26.57
2022-09-07T00:19:14.184Z,26.40
2022-09-07T00:21:40.990Z,26.35
2022-09-07T00:24:07.739Z,26.38
2022-09-07T00:26:34.388Z,26.52
2022-09-07T00:29:03.676Z,26.60
2022-09-07T00:31:31.091Z,26.49
2022-09-07T00:34:00.534Z,26.44
2022-09-07T00:36:27.861Z,26.41
2022-09-07T00:38:55.260Z,26.35
2022-09-07T00:41:23.033Z,26.42
2022-09-07T00:43:55.606Z,26.55
2022-09-07T00:46:27.561Z,26.36
2022-09-07T00:49:00.601Z,26.32
2022-09-07T00:51:42.532Z,26.19
2022-09-07T00:54:17.420Z,26.20
2022-09-07T00:56:45.196Z,26.25
2022-09-07T00:59:15.826Z,26.20
2022-09-07T01:01:42.877Z,26.22
2022-09-07T01:04:09.935Z,26.19
2022-09-07T01:06:39.660Z,26.23
2022-09-07T01:09:18.741Z,26.21
2022-09-07T01:11:51.148Z,26.13
2022-09-07T01:14:29.036Z,26.01
2022-09-07T01:17:14.532Z,26.02
2022-09-07T01:20:09.013Z,25.95
2022-09-07T01:23:03.769Z,25.89
2022-09-07T01:25:39.730Z,25.90
2022-09-07T01:28:29.258Z,25.88
2022-09-07T01:31:09.716Z,25.82
2022-09-07T01:34:07.148Z,25.97
2022-09-07T01:36:40.771Z,26.00
2022-09-07T01:39:08.303Z,26.01
2022-09-07T01:41:53.767Z,26.03
2022-09-07T01:44:20.524Z,26.10
2022-09-07T01:47:01.578Z,26.12
2022-09-07T01:49:46.136Z,26.12
2022-09-07T01:52:38.332Z,26.07
2022-09-07T01:55:05.023Z,26.00
2022-09-07T01:57:43.250Z,26.06
2022-09-07T02:00:15.485Z,26.10
2022-09-07T02:02:53.232Z,26.15
2022-09-07T02:05:23.853Z,26.12
2022-09-07T02:08:03.380Z,26.17
2022-09-07T02:11:00.685Z,26.18
2022-09-07T02:13:35.697Z,26.03
2022-09-07T02:16:09.479Z,25.97
2022-09-07T02:18:44.563Z,25.94
2022-09-07T02:21:13.377Z,25.86
2022-09-07T02:23:58.066Z,25.85
2022-09-07T02:26:28.812Z,25.85
2022-09-07T02:28:56.070Z,25.86
2022-09-07T02:31:23.122Z,25.88
2022-09-07T02:33:50.106Z,25.91
2022-09-07T02:36:21.145Z,25.83
2022-09-07T02:38:47.827Z,25.69
2022-09-07T02:41:38.412Z,25.87
2022-09-07T02:44:14.133Z,25.73
2022-09-07T02:46:59.576Z,25.68
2022-09-07T02:49:38.200Z,25.55
2022-09-07T02:52:07.685Z,25.59
2022-09-07T02:54:56.113Z,25.54
2022-09-07T02:57:41.534Z,25.61
2022-09-07T03:00:20.913Z,25.63
2022-09-07T03:03:14.802Z,25.75
2022-09-07T03:05:55.433Z,25.85
2022-09-07T03:08:28.824Z,25.88
2022-09-07T03:10:57.711Z,25.87
2022-09-07T03:13:27.514Z,25.91
2022-09-07T03:15:56.282Z,25.97
2022-09-07T03:18:24.309Z,25.96
2022-09-07T03:20:51.327Z,25.91
2022-09-07T03:23:18.111Z,26.07
2022-09-07T03:25:45.428Z,26.07
2022-09-07T03:28:12.279Z,26.10
2022-09-07T03:30:43.381Z,26.01
2022-09-07T03:33:11.366Z,26.07
2022-09-07T03:35:38.161Z,26.01
2022-09-07T03:38:04.899Z,26.05
2022-09-07T03:40:31.606Z,25.99
2022-09-07T03:42:58.370Z,26.04
2022-09-07T03:45:26.691Z,25.93
2022-09-07T03:47:53.352Z,25.90
2022-09-07T03:50:20.063Z,25.98
2022-09-07T03:52:46.770Z,25.96
2022-09-07T03:55:13.509Z,25.85
2022-09-07T03:57:40.512Z,25.76
2022-09-07T04:00:08.392Z,25.88
2022-09-07T04:02:36.537Z,25.94
2022-09-07T04:05:03.421Z,26.09
2022-09-07T04:07:30.186Z,26.04
2022-09-07T04:09:57.607Z,25.95
2022-09-07T04:12:26.166Z,26.03
2022-09-07T04:14:52.902Z,25.93
2022-09-07T04:17:19.618Z,25.87
2022-09-07T04:19:46.343Z,25.89
2022-09-07T04:22:13.013Z,25.82
2022-09-07T04:24:39.702Z,25.90
2022-09-07T04:27:06.461Z,25.84
2022-09-07T04:29:33.232Z,25.87
2022-09-07T04:31:59.919Z,25.78
2022-09-07T04:34:26.719Z,25.74
2022-09-07T04:36:53.628Z,25.78
2022-09-07T04:39:20.344Z,25.65
2022-09-07T04:41:48.161Z,25.49
2022-09-07T04:44:16.923Z,25.79
2022-09-07T04:46:43.974Z,25.87
2022-09-07T04:49:12.821Z,25.77
2022-09-07T04:51:40.353Z,26.05
2022-09-07T04:54:07.412Z,26.00
2022-09-07T04:56:34.150Z,25.65
2022-09-07T04:59:01.896Z,25.75
2022-09-07T05:01:28.689Z,25.38
2022-09-07T05:03:55.525Z,25.21
2022-09-07T05:06:23.357Z,25.14
2022-09-07T05:08:52.430Z,25.00
2022-09-07T05:11:24.948Z,24.79
2022-09-07T05:13:59.143Z,24.88
2022-09-07T05:16:26.707Z,24.80
2022-09-07T05:18:56.847Z,24.78
2022-09-07T05:21:26.643Z,24.95
2022-09-07T05:23:55.575Z,24.88
2022-09-07T05:26:24.215Z,24.76
2022-09-07T05:28:51.081Z,24.77
2022-09-07T05:31:23.026Z,24.75
2022-09-07T05:36:41.443Z,24.62
2022-09-07T05:39:09.140Z,24.60
2022-09-07T05:41:36.150Z,24.72
2022-09-07T05:46:51.726Z,24.68
2022-09-07T05:49:18.468Z,24.67
2022-09-07T05:51:45.229Z,24.67
2022-09-07T05:54:12.239Z,24.75
2022-09-07T05:56:39.256Z,24.83
2022-09-07T05:59:06.209Z,24.84
2022-09-07T06:01:35.387Z,25.05
2022-09-07T06:04:02.497Z,24.81
2022-09-07T06:06:29.547Z,24.72
2022-09-07T06:08:57.825Z,24.81
2022-09-07T06:11:26.411Z,24.89
2022-09-07T06:13:53.531Z,24.97
2022-09-07T06:16:20.898Z,25.13
2022-09-07T06:18:49.832Z,25.14
2022-09-07T06:21:23.791Z,25.09
2022-09-07T06:23:51.515Z,25.09
2022-09-07T06:26:20.328Z,25.13
2022-09-07T06:28:49.834Z,25.23
2022-09-07T06:31:22.972Z,25.08
2022-09-07T06:33:51.017Z,25.17
2022-09-07T06:36:18.701Z,25.19
2022-09-07T06:38:47.054Z,25.28
2022-09-07T06:44:12.473Z,25.40
2022-09-07T06:49:26.520Z,25.41
2022-09-07T06:51:53.356Z,25.53
2022-09-07T06:57:09.781Z,25.63
2022-09-07T06:59:37.554Z,25.60
2022-09-07T07:02:05.893Z,25.76
2022-09-07T07:04:39.507Z,25.75
2022-09-07T07:07:11.175Z,25.69
2022-09-07T07:09:38.278Z,25.76
2022-09-07T07:12:05.031Z,25.88
2022-09-07T07:14:34.403Z,25.93
2022-09-07T07:17:02.342Z,25.94
2022-09-07T07:19:29.197Z,26.00
2022-09-07T07:22:29.629Z,26.00
2022-09-07T07:24:42.858Z,26.05
2022-09-07T07:27:09.737Z,26.05
2022-09-07T07:29:36.707Z,26.13
2022-09-07T07:32:04.408Z,26.16
2022-09-07T07:34:31.302Z,26.15
2022-09-07T07:36:58.205Z,26.29
2022-09-07T07:42:12.617Z,26.35
2022-09-07T07:44:39.367Z,26.21
2022-09-07T07:47:06.312Z,26.21
2022-09-07T07:49:33.166Z,26.36
2022-09-07T07:54:46.859Z,26.22
2022-09-07T07:57:14.323Z,26.39
2022-09-07T07:59:41.097Z,26.48
2022-09-07T08:02:13.862Z,26.47
2022-09-07T08:04:40.746Z,26.56
2022-09-07T08:07:10.775Z,26.47
2022-09-07T08:09:42.200Z,26.48
2022-09-07T08:12:11.434Z,26.51
2022-09-07T08:14:42.721Z,26.52
2022-09-07T08:17:14.199Z,26.52
2022-09-07T08:19:48.246Z,26.60
2022-09-07T08:22:14.839Z,26.74
2022-09-07T08:24:41.435Z,26.75
2022-09-07T08:27:08.398Z,26.76
2022-09-07T08:29:35.693Z,26.89
2022-09-07T08:32:04.521Z,26.91
2022-09-07T08:34:31.269Z,26.96
2022-09-07T08:36:58.087Z,26.96
2022-09-07T08:39:25.234Z,27.03
2022-09-07T08:41:51.740Z,26.96
2022-09-07T08:44:47.646Z,26.93
2022-09-07T08:47:28.645Z,27.30
2022-09-07T08:50:10.384Z,27.19
2022-09-07T08:52:42.821Z,27.29
2022-09-07T08:55:32.467Z,27.28
2022-09-07T08:58:05.098Z,27.14
2022-09-07T09:00:31.726Z,27.28
2022-09-07T09:05:51.830Z,27.23
2022-09-07T09:08:27.415Z,27.26
2022-09-07T09:11:10.884Z,27.47
2022-09-07T09:14:10.131Z,27.60
2022-09-07T09:16:55.497Z,27.74
2022-09-07T09:19:39.543Z,27.74
2022-09-07T09:22:18.899Z,27.57
2022-09-07T09:24:54.652Z,27.85
2022-09-07T09:27:21.250Z,27.90
2022-09-07T09:29:47.883Z,27.85
2022-09-07T09:32:33.403Z,27.95
2022-09-07T09:35:21.425Z,28.17
2022-09-07T09:37:47.971Z,28.20
2022-09-07T09:40:19.111Z,28.20
2022-09-07T09:42:47.234Z,28.24
2022-09-07T09:45:22.296Z,28.26
2022-09-07T09:47:51.212Z,28.35
2022-09-07T09:53:35.160Z,28.73
2022-09-07T09:56:04.609Z,28.71
2022-09-07T10:04:36.943Z,28.81
2022-09-07T10:07:13.416Z,28.97
2022-09-07T10:09:43.714Z,29.01
2022-09-07T10:12:31.121Z,29.03
2022-09-07T10:15:00.958Z,29.29
2022-09-07T10:17:43.915Z,29.33
2022-09-07T10:20:20.073Z,29.62
2022-09-07T10:22:59.419Z,29.75
2022-09-07T10:25:44.479Z,29.64
2022-09-07T10:28:12.668Z,29.74
2022-09-07T10:31:15.783Z,29.59
2022-09-07T10:34:26.467Z,29.53
2022-09-07T10:37:09.652Z,29.50
2022-09-07T10:39:41.787Z,29.54
2022-09-07T10:42:35.883Z,29.94
2022-09-07T10:45:18.562Z,29.96
2022-09-07T10:48:14.083Z,29.90
2022-09-07T10:51:12.704Z,30.16
2022-09-07T10:57:23.490Z,30.09
2022-09-07T11:00:10.345Z,30.02
2022-09-07T11:06:18.823Z,30.41
2022-09-07T11:12:20.761Z,30.47
2022-09-07T11:15:12.874Z,30.84
2022-09-07T11:17:57.042Z,30.86
2022-09-07T11:20:50.775Z,31.12
2022-09-07T11:23:26.322Z,31.06
2022-09-07T11:26:26.626Z,31.12
2022-09-07T11:31:55.507Z,31.09
2022-09-07T11:34:30.233Z,31.09
2022-09-07T11:37:03.146Z,30.79
2022-09-07T11:39:36.287Z,30.62
2022-09-07T11:45:12.906Z,31.09
2022-09-07T11:47:46.337Z,31.33
2022-09-07T11:50:18.925Z,31.72
2022-09-07T11:53:17.009Z,31.70
2022-09-07T11:55:48.381Z,31.92
2022-09-07T11:58:37.611Z,31.75
2022-09-07T12:01:25.914Z,31.14
2022-09-07T12:04:16.935Z,30.44
2022-09-07T12:06:46.388Z,30.29
2022-09-07T12:09:24.174Z,30.59
2022-09-07T12:12:09.725Z,30.81
2022-09-07T12:15:27.632Z,31.33
2022-09-07T12:18:10.251Z,32.08
2022-09-07T12:20:42.998Z,32.21
2022-09-07T12:23:26.463Z,31.93
2022-09-07T12:26:13.321Z,31.88
2022-09-07T12:28:39.946Z,31.25
2022-09-07T12:31:12.445Z,30.89
2022-09-07T12:33:40.575Z,30.28
2022-09-07T12:36:26.115Z,30.47
2022-09-07T12:39:25.685Z,30.76
2022-09-07T12:45:29.410Z,31.28
2022-09-07T12:48:04.596Z,30.89
2022-09-07T12:50:39.465Z,30.93
2022-09-07T12:53:13.063Z,30.40
2022-09-07T12:58:45.144Z,29.80
2022-09-07T13:01:19.507Z,30.02
2022-09-07T13:04:12.967Z,30.49
2022-09-07T13:07:13.154Z,30.38
2022-09-07T13:09:41.537Z,30.55
2022-09-07T13:15:28.737Z,30.22
2022-09-07T13:17:56.631Z,30.42
2022-09-07T13:20:30.330Z,31.06
2022-09-07T13:23:09.323Z,31.11
2022-09-07T13:25:36.941Z,30.84
2022-09-07T13:28:44.542Z,30.78
2022-09-07T13:31:19.683Z,30.80
2022-09-07T13:33:52.525Z,30.24
2022-09-07T13:36:25.676Z,29.84
2022-09-07T13:38:54.572Z,29.46
2022-09-07T13:41:26.282Z,29.47
2022-09-07T13:43:57.724Z,29.73
2022-09-07T13:46:48.021Z,29.75
2022-09-07T13:49:28.906Z,29.64
2022-09-07T13:52:05.886Z,29.35
2022-09-07T13:55:03.227Z,29.74
2022-09-07T13:57:52.929Z,29.62
2022-09-07T14:00:23.035Z,29.56
2022-09-07T14:02:56.699Z,29.35
2022-09-07T14:05:25.018Z,29.50
2022-09-07T14:07:53.800Z,29.40
2022-09-07T14:10:26.212Z,29.27
2022-09-07T14:13:05.887Z,29.26
2022-09-07T14:15:39.484Z,29.23
2022-09-07T14:18:22.551Z,30.05
2022-09-07T14:20:52.503Z,30.00
2022-09-07T14:23:34.885Z,29.80
2022-09-07T14:26:18.713Z,29.65
2022-09-07T14:28:54.177Z,29.37
2022-09-07T14:31:23.335Z,29.37
2022-09-07T14:33:54.684Z,29.07
2022-09-07T14:36:45.479Z,28.88
2022-09-07T14:39:16.082Z,28.74
2022-09-07T14:41:44.165Z,28.81
2022-09-07T14:44:31.900Z,29.09
2022-09-07T14:47:07.629Z,28.88
2022-09-07T14:49:34.978Z,28.89
2022-09-07T14:52:02.050Z,29.03
2022-09-07T14:54:34.198Z,29.11
2022-09-07T14:57:05.749Z,28.95
2022-09-07T14:59:41.890Z,29.00
2022-09-07T15:02:28.366Z,28.96
2022-09-07T15:05:23.237Z,28.88
2022-09-07T15:07:58.865Z,28.82
2022-09-07T15:10:25.746Z,28.65
2022-09-07T15:12:57.525Z,28.36
2022-09-07T15:15:26.685Z,28.56
2022-09-07T15:18:03.158Z,28.68
2022-09-07T15:20:44.022Z,28.85
2022-09-07T15:23:15.698Z,28.86
2022-09-07T15:25:48.227Z,28.87
2022-09-07T15:34:02.393Z,28.73
2022-09-07T15:36:32.001Z,28.70
2022-09-07T15:39:01.138Z,28.67
2022-09-07T15:41:29.595Z,28.60
2022-09-07T15:43:57.785Z,28.58
2022-09-07T15:46:25.025Z,28.55
2022-09-07T15:49:12.556Z,28.62
2022-09-07T15:54:29.859Z,28.38
2022-09-07T15:59:45.238Z,28.69
2022-09-07T16:04:58.534Z,28.68
2022-09-07T16:08:24.855Z,28.80
2022-09-07T16:10:12.448Z,28.72
2022-09-07T16:15:26.994Z,28.52
2022-09-07T16:17:54.081Z,28.61
2022-09-07T16:20:20.873Z,28.47
2022-09-07T16:25:35.204Z,28.51
2022-09-07T16:28:02.429Z,28.60
2022-09-07T16:30:29.090Z,28.58
2022-09-07T16:32:56.003Z,28.43
2022-09-07T16:35:23.122Z,28.44
2022-09-07T16:40:44.420Z,28.37
2022-09-07T16:43:11.287Z,28.47
2022-09-07T16:48:24.600Z,28.35
2022-09-07T16:50:55.420Z,28.35
2022-09-07T16:53:25.847Z,28.25
2022-09-07T16:55:53.362Z,28.25
2022-09-07T16:58:37.904Z,28.29
2022-09-07T17:03:39.480Z,28.48
2022-09-07T17:06:09.206Z,28.35
2022-09-07T17:08:37.593Z,28.21
2022-09-07T17:11:09.893Z,28.39
2022-09-07T17:13:38.831Z,28.53
2022-09-07T17:16:10.486Z,28.59
2022-09-07T17:21:28.685Z,28.57
2022-09-07T17:23:56.137Z,28.54
2022-09-07T17:26:26.723Z,28.57
2022-09-07T17:29:00.417Z,28.60
2022-09-07T17:34:23.744Z,28.65
2022-09-07T17:36:51.299Z,28.57
2022-09-07T17:39:19.312Z,28.53
2022-09-07T17:41:47.765Z,28.42
2022-09-07T17:44:15.426Z,28.36
2022-09-07T17:46:42.302Z,28.12
2022-09-07T17:49:12.235Z,27.84
2022-09-07T17:51:39.546Z,27.92
2022-09-07T17:54:11.145Z,27.85
2022-09-07T17:56:39.248Z,27.89
2022-09-07T18:01:54.216Z,27.77
2022-09-07T18:04:21.687Z,27.82
2022-09-07T18:06:48.738Z,27.70
2022-09-07T18:09:15.766Z,27.80
2022-09-07T18:11:46.693Z,27.60
2022-09-07T18:14:14.798Z,27.73
2022-09-07T18:16:43.526Z,27.80
2022-09-07T18:19:11.274Z,27.74
2022-09-07T18:21:39.279Z,27.72
2022-09-07T18:24:13.529Z,27.95
2022-09-07T18:26:40.849Z,27.99
2022-09-07T18:29:25.884Z,27.82
2022-09-07T18:31:55.232Z,27.64
2022-09-07T18:34:22.393Z,27.76
2022-09-07T18:36:49.955Z,27.87
2022-09-07T18:39:20.564Z,27.67
2022-09-07T18:41:47.247Z,27.69
2022-09-07T18:47:08.587Z,27.44
2022-09-07T18:49:37.442Z,27.36
2022-09-07T18:54:51.205Z,27.59
2022-09-07T18:57:18.107Z,27.56
2022-09-07T18:59:49.248Z,27.53
2022-09-07T19:02:21.741Z,27.59
2022-09-07T19:07:42.033Z,27.32
2022-09-07T19:10:11.566Z,27.39
2022-09-07T19:12:43.750Z,27.68
2022-09-07T19:15:12.729Z,27.74
2022-09-07T19:17:39.579Z,27.58
2022-09-07T19:20:08.121Z,27.45
2022-09-07T19:22:35.154Z,27.56
2022-09-07T19:25:02.515Z,27.46
2022-09-07T19:27:29.222Z,27.45
2022-09-07T19:29:56.923Z,27.32
2022-09-07T19:32:25.591Z,27.18
2022-09-07T19:34:55.852Z,27.08
2022-09-07T19:37:27.540Z,27.26
2022-09-07T19:39:57.407Z,27.26
2022-09-07T19:42:24.945Z,27.53
2022-09-07T19:44:53.208Z,27.45
2022-09-07T19:47:20.605Z,27.20
2022-09-07T19:49:47.632Z,27.14
2022-09-07T19:52:14.260Z,27.00
2022-09-07T19:54:42.422Z,27.01
2022-09-07T19:57:09.932Z,26.91
2022-09-07T19:59:37.889Z,26.83
2022-09-07T20:02:04.993Z,26.67
2022-09-07T20:04:31.986Z,26.71
2022-09-07T20:06:58.811Z,26.62
2022-09-07T20:09:26.016Z,26.61
2022-09-07T20:11:54.187Z,26.59
2022-09-07T20:14:20.978Z,26.65
2022-09-07T20:16:48.904Z,26.64
2022-09-07T20:19:15.500Z,26.74
2022-09-07T20:21:42.814Z,26.78
2022-09-07T20:24:12.786Z,26.81
2022-09-07T20:26:40.179Z,27.33
2022-09-07T20:29:26.893Z,26.81
2022-09-07T20:31:56.924Z,26.70
2022-09-07T20:34:25.323Z,26.61
2022-09-07T20:36:52.545Z,26.69
2022-09-07T20:39:19.740Z,26.61
2022-09-07T20:41:48.514Z,26.49
2022-09-07T20:44:16.077Z,26.37
2022-09-07T20:46:44.042Z,26.42
2022-09-07T20:49:11.008Z,26.19
2022-09-07T20:51:39.015Z,26.16
2022-09-07T20:54:05.694Z,26.13
2022-09-07T20:56:32.304Z,26.10
2022-09-07T20:59:00.707Z,26.04
2022-09-07T21:01:28.487Z,26.22
2022-09-07T21:03:58.000Z,26.12
2022-09-07T21:06:26.219Z,26.15
2022-09-07T21:08:53.615Z,26.02
2022-09-07T21:11:24.543Z,26.01
2022-09-07T21:13:59.319Z,25.99
2022-09-07T21:16:27.113Z,26.17
2022-09-07T21:18:55.982Z,26.38
2022-09-07T21:21:24.456Z,26.93
2022-09-07T21:23:56.777Z,26.79
2022-09-07T21:26:25.923Z,26.47
2022-09-07T21:29:01.342Z,26.56
2022-09-07T21:31:29.745Z,26.66
2022-09-07T21:33:58.530Z,26.69
2022-09-07T21:36:27.646Z,26.58
2022-09-07T21:38:54.975Z,26.53
2022-09-07T21:41:23.287Z,26.52
2022-09-07T21:43:54.806Z,26.59
2022-09-07T21:46:21.475Z,26.37
2022-09-07T21:48:48.111Z,26.22
2022-09-07T21:51:15.337Z,26.13
2022-09-07T21:53:43.149Z,25.99
2022-09-07T21:56:13.141Z,25.92
2022-09-07T21:58:40.629Z,25.88
2022-09-07T22:01:15.040Z,25.89
2022-09-07T22:03:41.814Z,25.78
2022-09-07T22:06:09.595Z,25.78
2022-09-07T22:08:38.499Z,25.95
2022-09-07T22:11:07.804Z,26.28
2022-09-07T22:13:35.018Z,26.39
2022-09-07T22:16:01.990Z,26.47
2022-09-07T22:18:30.333Z,26.34
2022-09-07T22:21:09.778Z,26.38
2022-09-07T22:23:39.944Z,26.89
2022-09-07T22:26:07.900Z,27.00
2022-09-07T22:28:36.803Z,26.66
2022-09-07T22:31:17.183Z,26.74
2022-09-07T22:33:45.121Z,26.74
2022-09-07T22:36:22.514Z,26.39
2022-09-07T22:38:57.855Z,26.20
2022-09-07T22:41:30.053Z,26.04
2022-09-07T22:43:57.752Z,26.11
2022-09-07T22:46:27.575Z,26.11
2022-09-07T22:48:56.037Z,26.14
2022-09-07T22:51:24.917Z,26.38
2022-09-07T22:53:51.937Z,26.32
2022-09-07T22:56:22.372Z,26.18
2022-09-07T22:58:51.425Z,26.09
2022-09-07T23:01:19.166Z,26.28
2022-09-07T23:03:46.017Z,25.88
2022-09-07T23:06:40.356Z,25.99
2022-09-07T23:09:17.426Z,26.53
2022-09-07T23:11:45.569Z,26.79
2022-09-07T23:14:20.074Z,26.49
2022-09-07T23:16:47.126Z,26.44
2022-09-07T23:19:15.514Z,26.21
2022-09-07T23:21:42.626Z,26.12
2022-09-07T23:24:15.078Z,26.10
2022-09-07T23:26:42.420Z,26.02
2022-09-07T23:29:11.742Z,26.03
2022-09-07T23:31:38.434Z,25.90
2022-09-07T23:34:05.322Z,25.87
2022-09-07T23:36:32.651Z,25.64
2022-09-07T23:39:00.041Z,25.52
2022-09-07T23:41:27.575Z,25.96
2022-09-07T23:43:55.195Z,26.18
2022-09-07T23:46:22.195Z,25.97
2022-09-07T23:48:50.148Z,26.40
2022-09-07T23:51:22.745Z,26.13
2022-09-07T23:53:50.515Z,26.52
2022-09-07T23:56:17.152Z,26.30
2022-09-07T23:58:43.818Z,26.19
